Time;durP1;ratioP1;P1;durP2;ratioP2;P2;SDS_P1;SDS_P2;PMS_P1;PMS_P2;Temp;Humidity;BMP_temperature;BMP_pressure;BME280_temperature;BME280_humidity;BME280_pressure;Samples;Min_cycle;Max_cycle;Signal;HPM_P1;HPM_P2
2022/06/15 00:00:54;;;;;;;4.25;1.85;;;13.20;60.50;;;;;;642708;221;26582;-73
2022/06/15 00:03:23;;;;;;;1.92;1.55;;;13.20;61.70;;;;;;640527;221;27209;-73
2022/06/15 00:05:49;;;;;;;1.92;1.70;;;13.20;61.10;;;;;;644031;221;26736;-73
2022/06/15 00:08:17;;;;;;;1.80;1.70;;;13.20;61.40;;;;;;644255;221;26560;-73
2022/06/15 00:10:45;;;;;;;1.70;1.60;;;13.20;61.90;;;;;;646082;220;26600;-73
2022/06/15 00:13:13;;;;;;;1.60;1.50;;;13.10;62.20;;;;;;641722;219;26572;-72
2022/06/15 00:15:41;;;;;;;1.77;1.65;;;13.10;62.60;;;;;;641141;220;26575;-73
2022/06/15 00:18:08;;;;;;;2.33;1.67;;;13.10;62.70;;;;;;643596;221;26889;-73
2022/06/15 00:20:37;;;;;;;1.73;1.62;;;13.10;62.70;;;;;;642086;221;26496;-72
2022/06/15 00:23:04;;;;;;;2.15;1.70;;;13.10;63.10;;;;;;641528;221;26604;-73
2022/06/15 00:25:31;;;;;;;2.65;1.80;;;13.10;63.30;;;;;;641946;220;26829;-73
2022/06/15 00:27:59;;;;;;;2.05;1.75;;;13.10;63.70;;;;;;643431;221;26550;-73
2022/06/15 00:30:28;;;;;;;2.92;1.67;;;13.10;64.10;;;;;;643318;220;26569;-73
2022/06/15 00:32:55;;;;;;;2.55;1.87;;;13.10;64.50;;;;;;640031;221;26570;-73
2022/06/15 00:35:24;;;;;;;2.92;1.80;;;13.00;64.60;;;;;;643571;221;26482;-73
2022/06/15 00:37:51;;;;;;;2.60;1.95;;;13.00;64.60;;;;;;641897;221;26533;-73
2022/06/15 00:40:18;;;;;;;2.50;1.85;;;13.00;64.80;;;;;;643183;221;26501;-72
2022/06/15 00:42:45;;;;;;;2.22;1.95;;;13.00;65.20;;;;;;643455;221;26754;-72
2022/06/15 00:45:14;;;;;;;2.30;1.80;;;13.00;65.60;;;;;;639640;221;26515;-73
2022/06/15 00:47:41;;;;;;;1.80;1.50;;;12.90;65.50;;;;;;642782;218;26589;-72
2022/06/15 00:50:10;;;;;;;1.75;1.65;;;12.90;66.00;;;;;;641721;221;26556;-73
2022/06/15 00:52:41;;;;;;;2.45;1.85;;;12.90;66.00;;;;;;643534;221;26560;-72
2022/06/15 00:55:11;;;;;;;1.77;1.67;;;12.90;66.00;;;;;;641326;221;26762;-72
2022/06/15 00:57:41;;;;;;;2.10;1.80;;;12.90;66.40;;;;;;641148;221;26511;-72
2022/06/15 01:00:12;;;;;;;2.50;1.50;;;12.90;66.50;;;;;;641749;221;26540;-72
2022/06/15 01:02:36;;;;;;;2.00;1.87;;;12.90;66.50;;;;;;642219;221;26633;-72
2022/06/15 01:05:06;;;;;;;2.22;1.87;;;12.90;66.20;;;;;;647205;219;26555;-72
2022/06/15 01:07:42;;;;;;;3.15;1.83;;;12.80;66.00;;;;;;641684;220;26775;-72
2022/06/15 01:10:12;;;;;;;2.30;1.80;;;12.60;65.80;;;;;;640997;221;26751;-72
2022/06/15 01:12:44;;;;;;;3.05;2.05;;;12.90;66.20;;;;;;642444;221;26523;-72
2022/06/15 01:15:18;;;;;;;2.37;2.10;;;12.80;66.10;;;;;;641949;221;26578;-72
2022/06/15 01:17:51;;;;;;;3.70;2.12;;;12.80;66.10;;;;;;639687;222;26545;-72
2022/06/15 01:20:37;;;;;;;2.22;1.80;;;12.80;65.90;;;;;;641799;221;26577;-72
2022/06/15 01:23:26;;;;;;;2.20;1.58;;;12.80;66.00;;;;;;640388;221;26580;-72
2022/06/15 01:26:03;;;;;;;2.62;1.75;;;12.80;66.00;;;;;;639017;221;26889;-72
2022/06/15 01:28:36;;;;;;;3.35;2.08;;;12.80;66.10;;;;;;645666;218;26606;-72
2022/06/15 01:31:20;;;;;;;2.25;1.83;;;12.70;66.00;;;;;;643373;221;27201;-72
2022/06/15 01:33:55;;;;;;;1.87;1.77;;;12.70;66.50;;;;;;639698;221;26587;-73
2022/06/15 01:36:35;;;;;;;2.22;1.90;;;12.70;66.50;;;;;;638497;221;26568;-72
2022/06/15 01:39:08;;;;;;;2.42;1.90;;;12.70;66.90;;;;;;637368;223;26808;-73
2022/06/15 01:41:36;;;;;;;3.03;2.17;;;12.70;66.80;;;;;;637319;226;26741;-73
2022/06/15 01:44:21;;;;;;;2.92;2.00;;;12.70;66.60;;;;;;637045;225;26758;-73
2022/06/15 01:46:48;;;;;;;2.78;2.08;;;12.70;67.20;;;;;;637185;225;27027;-72
2022/06/15 01:49:19;;;;;;;1.55;1.52;;;12.70;67.40;;;;;;637302;225;26558;-73
2022/06/15 01:51:46;;;;;;;1.98;1.58;;;12.70;67.30;;;;;;637061;225;26522;-73
2022/06/15 01:54:15;;;;;;;2.10;1.73;;;12.70;67.30;;;;;;637367;225;26534;-72
2022/06/15 01:56:41;;;;;;;2.58;2.12;;;12.70;67.30;;;;;;636666;225;26525;-72
2022/06/15 01:59:10;;;;;;;2.03;1.92;;;12.70;67.40;;;;;;637079;225;26833;-73
2022/06/15 02:01:41;;;;;;;1.87;1.73;;;12.60;67.90;;;;;;637278;225;26488;-73
2022/06/15 02:04:08;;;;;;;2.47;1.77;;;12.60;67.90;;;;;;636554;225;26505;-73
2022/06/15 02:06:39;;;;;;;2.75;2.00;;;12.50;67.90;;;;;;637324;225;26730;-72
2022/06/15 02:09:13;;;;;;;4.30;2.10;;;12.50;68.10;;;;;;637481;225;26761;-72
2022/06/15 02:11:41;;;;;;;2.22;1.80;;;12.50;68.00;;;;;;637020;225;26520;-72
2022/06/15 02:14:25;;;;;;;2.83;2.00;;;12.50;68.00;;;;;;637284;225;26527;-72
2022/06/15 02:16:54;;;;;;;2.20;2.00;;;12.50;68.00;;;;;;638848;225;26586;-72
2022/06/15 02:19:21;;;;;;;2.58;1.58;;;12.40;68.00;;;;;;638101;225;26766;-73
2022/06/15 02:21:48;;;;;;;2.90;2.17;;;12.40;68.20;;;;;;637803;224;26830;-73
2022/06/15 02:24:16;;;;;;;2.10;1.80;;;12.40;68.40;;;;;;638078;225;26519;-73
2022/06/15 02:26:43;;;;;;;2.25;1.95;;;12.40;68.60;;;;;;637930;224;26542;-72
2022/06/15 02:29:14;;;;;;;3.33;1.65;;;12.40;68.70;;;;;;637915;225;26534;-73
2022/06/15 02:31:41;;;;;;;2.15;1.70;;;12.30;68.60;;;;;;637870;224;26506;-73
2022/06/15 02:34:09;;;;;;;3.83;1.70;;;12.30;68.60;;;;;;637797;225;26555;-73
2022/06/15 02:36:37;;;;;;;2.47;1.67;;;12.30;68.90;;;;;;637722;225;26579;-72
2022/06/15 02:39:04;;;;;;;2.10;1.90;;;12.30;68.80;;;;;;637656;224;26596;-73
2022/06/15 02:41:31;;;;;;;3.33;1.83;;;12.30;69.00;;;;;;637690;225;26571;-73
2022/06/15 02:43:58;;;;;;;2.35;1.70;;;12.30;69.20;;;;;;637690;225;26781;-72
2022/06/15 02:46:25;;;;;;;2.20;1.90;;;12.30;69.40;;;;;;637638;225;26535;-72
2022/06/15 02:48:53;;;;;;;2.35;1.90;;;12.30;69.70;;;;;;637617;223;26824;-72
2022/06/15 02:51:21;;;;;;;1.98;1.77;;;12.30;70.00;;;;;;637513;225;26525;-72
2022/06/15 02:53:49;;;;;;;2.20;1.75;;;12.30;70.70;;;;;;636806;223;26540;-72
2022/06/15 02:56:17;;;;;;;1.80;1.70;;;12.20;69.90;;;;;;637300;225;26515;-72
2022/06/15 02:58:44;;;;;;;2.47;2.03;;;12.30;70.10;;;;;;637283;224;26518;-72
2022/06/15 03:01:12;;;;;;;1.60;1.50;;;12.30;70.00;;;;;;637310;226;26769;-72
2022/06/15 03:03:39;;;;;;;1.80;1.70;;;12.30;70.40;;;;;;637272;226;26748;-72
2022/06/15 03:06:07;;;;;;;1.98;1.87;;;12.30;70.30;;;;;;637278;225;26537;-72
2022/06/15 03:08:35;;;;;;;2.55;1.98;;;12.30;70.20;;;;;;637231;225;26532;-72
2022/06/15 03:11:03;;;;;;;1.98;1.80;;;12.30;70.50;;;;;;637290;225;26518;-72
2022/06/15 03:13:30;;;;;;;2.22;2.03;;;12.20;70.30;;;;;;637306;225;26513;-72
2022/06/15 03:15:58;;;;;;;2.35;1.80;;;12.30;70.30;;;;;;637336;225;26743;-72
2022/06/15 03:18:25;;;;;;;1.75;1.62;;;12.30;70.30;;;;;;637213;223;26532;-72
2022/06/15 03:20:55;;;;;;;1.87;1.70;;;12.30;70.50;;;;;;637710;225;26502;-72
2022/06/15 03:23:22;;;;;;;2.15;1.90;;;12.30;70.50;;;;;;637581;225;26740;-72
2022/06/15 03:25:53;;;;;;;1.85;1.73;;;12.30;70.50;;;;;;637730;225;26484;-72
2022/06/15 03:28:21;;;;;;;1.83;1.60;;;12.40;70.80;;;;;;639512;224;26564;-72
2022/06/15 03:30:48;;;;;;;2.45;1.87;;;12.40;70.40;;;;;;638937;225;26500;-72
2022/06/15 03:33:15;;;;;;;2.20;1.75;;;12.40;70.40;;;;;;638696;225;26532;-72
2022/06/15 03:35:43;;;;;;;2.22;1.77;;;12.40;70.40;;;;;;638133;225;26795;-72
2022/06/15 03:38:10;;;;;;;1.70;1.60;;;12.40;70.50;;;;;;637865;225;26548;-71
2022/06/15 03:40:37;;;;;;;1.70;1.60;;;12.40;70.60;;;;;;637878;224;26792;-72
2022/06/15 03:43:04;;;;;;;2.25;2.05;;;12.50;70.50;;;;;;637894;225;26516;-72
2022/06/15 03:45:32;;;;;;;3.00;1.67;;;12.60;70.50;;;;;;637603;224;26882;-72
2022/06/15 03:47:59;;;;;;;2.30;1.95;;;12.60;70.70;;;;;;637323;225;27313;-72
2022/06/15 03:50:27;;;;;;;2.87;1.85;;;12.70;70.40;;;;;;637374;225;26582;-72
2022/06/15 03:52:54;;;;;;;2.28;1.73;;;12.70;70.20;;;;;;637575;225;26565;-72
2022/06/15 03:55:21;;;;;;;2.30;1.80;;;12.70;70.10;;;;;;637710;224;26767;-72
2022/06/15 03:57:49;;;;;;;1.50;1.40;;;12.80;69.80;;;;;;637670;223;26615;-72
2022/06/15 04:00:18;;;;;;;3.12;2.10;;;12.90;70.40;;;;;;637764;225;26567;-72
2022/06/15 04:02:45;;;;;;;2.08;1.60;;;12.90;69.70;;;;;;637487;225;26569;-72
2022/06/15 04:05:17;;;;;;;1.90;1.77;;;13.00;69.40;;;;;;637393;224;26536;-72
2022/06/15 04:10:18;;;;;;;1.95;1.77;;;13.10;69.40;;;;;;637362;226;26539;-72
2022/06/15 04:12:46;;;;;;;2.25;1.80;;;13.20;69.10;;;;;;637355;224;26520;-72
2022/06/15 04:15:16;;;;;;;2.15;1.95;;;13.30;68.90;;;;;;637353;225;26520;-72
2022/06/15 04:17:42;;;;;;;3.70;1.90;;;13.30;68.60;;;;;;637127;225;26507;-72
2022/06/15 04:22:44;;;;;;;2.12;1.60;;;13.40;68.30;;;;;;637347;225;26484;-72
2022/06/15 04:25:11;;;;;;;1.83;1.70;;;13.50;68.00;;;;;;637310;224;26740;-72
2022/06/15 04:27:39;;;;;;;2.05;1.70;;;13.60;67.50;;;;;;637325;223;26512;-72
2022/06/15 04:30:07;;;;;;;2.17;1.55;;;13.60;67.60;;;;;;637307;224;26546;-72
2022/06/15 04:32:34;;;;;;;2.15;1.92;;;13.60;67.40;;;;;;637337;226;26528;-72
2022/06/15 04:35:01;;;;;;;1.70;1.60;;;13.60;67.30;;;;;;637306;225;26771;-73
2022/06/15 04:37:29;;;;;;;2.58;1.80;;;13.80;66.80;;;;;;637347;223;26519;-72
2022/06/15 04:39:56;;;;;;;1.77;1.62;;;13.90;66.40;;;;;;639154;223;26759;-72
2022/06/15 04:42:24;;;;;;;1.80;1.70;;;14.30;65.50;;;;;;638522;224;26511;-72
2022/06/15 04:44:52;;;;;;;1.95;1.85;;;14.30;64.00;;;;;;638336;225;26559;-72
2022/06/15 04:47:20;;;;;;;1.92;1.55;;;14.40;63.80;;;;;;638159;224;26514;-72
2022/06/15 04:49:48;;;;;;;1.73;1.62;;;14.50;63.10;;;;;;637926;224;26538;-72
2022/06/15 04:52:15;;;;;;;2.17;1.80;;;14.50;63.10;;;;;;637998;225;26507;-72
2022/06/15 04:54:42;;;;;;;3.20;1.77;;;14.70;62.80;;;;;;638017;224;26518;-72
2022/06/15 04:57:09;;;;;;;1.90;1.80;;;14.80;62.40;;;;;;637732;224;26874;-72
2022/06/15 04:59:36;;;;;;;1.70;1.60;;;14.90;61.80;;;;;;637633;224;26794;-72
2022/06/15 05:02:04;;;;;;;1.67;1.58;;;15.10;61.40;;;;;;637608;224;26778;-72
2022/06/15 05:04:31;;;;;;;1.87;1.42;;;15.20;60.50;;;;;;637576;224;26574;-72
2022/06/15 05:06:59;;;;;;;1.40;1.30;;;15.30;60.40;;;;;;637600;224;26834;-72
2022/06/15 05:09:26;;;;;;;1.83;1.65;;;15.50;60.40;;;;;;637532;224;26582;-72
2022/06/15 05:11:53;;;;;;;1.85;1.67;;;15.40;59.90;;;;;;637552;224;26586;-72
2022/06/15 05:14:21;;;;;;;2.65;1.67;;;15.30;59.60;;;;;;637484;225;26544;-72
2022/06/15 05:16:49;;;;;;;1.85;1.52;;;15.40;59.50;;;;;;637288;225;26525;-72
2022/06/15 05:19:17;;;;;;;1.98;1.80;;;15.60;59.10;;;;;;637242;223;26535;-71
2022/06/15 05:21:45;;;;;;;1.70;1.60;;;15.70;59.10;;;;;;637245;224;26536;-73
2022/06/15 05:24:12;;;;;;;1.92;1.50;;;15.70;59.10;;;;;;637427;225;26525;-72
2022/06/15 05:26:40;;;;;;;2.75;1.90;;;15.80;59.00;;;;;;637551;225;26737;-73
2022/06/15 05:29:07;;;;;;;2.40;1.50;;;15.90;58.60;;;;;;637322;224;26790;-73
2022/06/15 05:31:34;;;;;;;2.35;1.60;;;15.80;58.50;;;;;;637363;224;26529;-73
2022/06/15 05:34:02;;;;;;;1.70;1.60;;;15.70;58.60;;;;;;637375;225;26748;-73
2022/06/15 05:36:30;;;;;;;1.58;1.48;;;15.70;59.30;;;;;;637397;224;26511;-73
2022/06/15 05:38:58;;;;;;;1.50;1.40;;;15.60;59.00;;;;;;637330;223;26546;-72
2022/06/15 05:41:25;;;;;;;2.00;1.80;;;15.60;58.80;;;;;;637419;225;26558;-74
2022/06/15 05:43:55;;;;;;;2.00;1.80;;;15.60;58.70;;;;;;637420;225;26500;-74
2022/06/15 05:46:24;;;;;;;1.40;1.30;;;15.60;58.70;;;;;;637307;225;26753;-74
2022/06/15 05:48:51;;;;;;;2.50;1.45;;;15.70;58.70;;;;;;637220;226;26540;-74
2022/06/15 05:51:18;;;;;;;2.00;1.65;;;15.70;58.00;;;;;;639221;223;26740;-74
2022/06/15 05:53:45;;;;;;;1.65;1.55;;;15.70;58.80;;;;;;638664;224;26561;-74
2022/06/15 05:56:13;;;;;;;1.70;1.60;;;15.80;57.90;;;;;;638345;224;26562;-74
2022/06/15 05:58:41;;;;;;;1.50;1.40;;;16.40;57.10;;;;;;638202;224;26549;-74
2022/06/15 06:01:11;;;;;;;2.20;1.40;;;16.60;56.60;;;;;;638007;224;26486;-73
2022/06/15 06:03:38;;;;;;;1.83;1.60;;;16.60;56.60;;;;;;637975;225;26740;-73
2022/06/15 06:06:05;;;;;;;1.50;1.40;;;16.70;55.80;;;;;;637921;225;26775;-73
2022/06/15 06:08:33;;;;;;;2.50;1.90;;;16.70;55.40;;;;;;637707;224;26587;-73
2022/06/15 06:11:00;;;;;;;1.62;1.52;;;16.70;55.60;;;;;;637628;224;27198;-73
2022/06/15 06:13:27;;;;;;;4.10;1.65;;;16.70;54.90;;;;;;637640;225;26553;-73
2022/06/15 06:15:55;;;;;;;1.65;1.30;;;16.70;54.80;;;;;;637655;225;27245;-73
2022/06/15 06:18:21;;;;;;;2.10;1.67;;;16.90;55.20;;;;;;637588;224;26692;-74
2022/06/15 06:20:49;;;;;;;2.50;1.45;;;17.20;53.90;;;;;;637593;225;26838;-74
2022/06/15 06:23:17;;;;;;;2.10;1.50;;;17.70;52.70;;;;;;637572;225;26566;-73
2022/06/15 06:25:46;;;;;;;3.17;1.58;;;17.90;52.10;;;;;;637543;225;26570;-73
2022/06/15 06:28:20;;;;;;;2.00;1.33;;;18.20;51.80;;;;;;637147;224;26532;-73
2022/06/15 06:30:48;;;;;;;3.08;1.40;;;18.20;52.10;;;;;;639069;221;26917;-73
2022/06/15 06:33:15;;;;;;;1.65;1.40;;;18.40;51.10;;;;;;643050;221;26551;-72
2022/06/15 06:35:43;;;;;;;1.42;1.30;;;18.60;50.30;;;;;;640978;221;26521;-72
2022/06/15 06:38:10;;;;;;;2.72;1.67;;;18.80;50.90;;;;;;643605;221;26921;-74
2022/06/15 06:40:37;;;;;;;1.98;1.17;;;19.10;49.30;;;;;;639645;221;26810;-73
2022/06/15 06:43:05;;;;;;;1.25;1.15;;;19.50;50.20;;;;;;640609;221;26511;-73
2022/06/15 06:45:33;;;;;;;1.20;1.10;;;19.80;49.10;;;;;;643294;221;26524;-73
2022/06/15 06:48:00;;;;;;;1.40;1.20;;;19.70;48.30;;;;;;644013;221;26827;-73
2022/06/15 06:50:28;;;;;;;1.35;1.20;;;19.60;48.20;;;;;;640004;221;26579;-74
2022/06/15 06:52:56;;;;;;;2.60;1.30;;;19.60;48.20;;;;;;640496;221;26493;-75
2022/06/15 06:55:27;;;;;;;2.22;1.42;;;19.70;48.20;;;;;;641391;221;26787;-75
2022/06/15 06:57:53;;;;;;;0.90;0.90;;;19.60;47.70;;;;;;643595;219;26815;-72
2022/06/15 07:00:20;;;;;;;4.85;1.35;;;19.60;48.00;;;;;;642208;219;26505;-74
2022/06/15 07:02:48;;;;;;;2.28;1.60;;;19.50;47.50;;;;;;644507;220;26570;-73
2022/06/15 07:05:15;;;;;;;1.20;1.10;;;19.60;47.60;;;;;;642375;220;26534;-73
2022/06/15 07:07:42;;;;;;;3.60;1.23;;;19.80;47.70;;;;;;644674;220;26957;-72
2022/06/15 07:10:09;;;;;;;1.62;1.05;;;19.80;47.80;;;;;;646634;221;26506;-73
2022/06/15 07:12:38;;;;;;;1.30;1.20;;;19.90;47.50;;;;;;644599;221;26544;-72
2022/06/15 07:15:04;;;;;;;1.37;1.17;;;20.20;47.60;;;;;;645403;221;26755;-72
2022/06/15 07:17:32;;;;;;;2.10;1.25;;;20.50;47.40;;;;;;642447;221;26564;-72
2022/06/15 07:20:00;;;;;;;1.33;1.10;;;20.50;47.40;;;;;;641317;221;26530;-73
2022/06/15 07:22:27;;;;;;;1.12;1.02;;;20.70;46.20;;;;;;639975;221;26520;-74
2022/06/15 07:24:56;;;;;;;1.27;1.17;;;20.60;46.00;;;;;;643903;221;26568;-72
2022/06/15 07:27:24;;;;;;;1.10;1.00;;;20.40;46.00;;;;;;641826;221;26799;-71
2022/06/15 07:29:53;;;;;;;1.20;1.20;;;20.20;46.00;;;;;;642558;221;26660;-71
2022/06/15 07:32:19;;;;;;;2.22;1.30;;;19.80;47.10;;;;;;640954;221;26554;-71
2022/06/15 07:34:47;;;;;;;1.37;1.12;;;19.70;47.30;;;;;;642389;221;26510;-72
2022/06/15 07:37:15;;;;;;;1.15;1.12;;;19.70;47.30;;;;;;640976;221;26574;-73
2022/06/15 07:39:43;;;;;;;2.72;1.30;;;20.10;46.70;;;;;;643388;219;26591;-73
2022/06/15 07:42:11;;;;;;;0.90;0.90;;;20.30;46.10;;;;;;641809;221;26599;-72
2022/06/15 07:44:39;;;;;;;1.45;1.20;;;20.30;46.10;;;;;;644586;221;27319;-72
2022/06/15 07:52:12;;;;;;;1.20;1.10;;;20.30;45.90;;;;;;638878;221;26556;-72
2022/06/15 07:54:39;;;;;;;1.60;0.90;;;20.40;46.00;;;;;;641936;221;26748;-72
2022/06/15 07:57:06;;;;;;;2.15;1.02;;;20.50;46.20;;;;;;642257;221;26518;-72
2022/06/15 07:59:34;;;;;;;4.78;1.00;;;20.60;45.40;;;;;;643615;221;26844;-72
2022/06/15 08:02:02;;;;;;;1.12;1.00;;;20.60;44.60;;;;;;643182;221;26574;-73
2022/06/15 08:04:29;;;;;;;2.03;1.40;;;20.60;44.60;;;;;;648057;221;26569;-72
2022/06/15 08:06:56;;;;;;;2.15;1.10;;;20.60;44.80;;;;;;640570;221;27222;-72
2022/06/15 08:09:23;;;;;;;1.73;1.23;;;20.60;45.20;;;;;;646025;221;26587;-72
2022/06/15 08:14:24;;;;;;;1.52;1.30;;;20.80;45.70;;;;;;640236;223;26545;-72
2022/06/15 08:16:51;;;;;;;1.08;0.93;;;20.90;44.90;;;;;;641423;220;26565;-72
2022/06/15 08:19:19;;;;;;;0.88;0.88;;;21.00;45.90;;;;;;651678;221;26796;-72
2022/06/15 08:21:47;;;;;;;1.52;1.15;;;20.90;44.50;;;;;;646941;221;26589;-73
2022/06/15 08:24:15;;;;;;;2.08;1.10;;;20.80;44.30;;;;;;641851;219;26518;-72
2022/06/15 08:26:43;;;;;;;3.10;1.00;;;20.80;44.30;;;;;;649001;221;26951;-72
2022/06/15 08:29:10;;;;;;;0.75;0.75;;;20.80;44.10;;;;;;637872;224;26539;-72
2022/06/15 08:31:38;;;;;;;1.23;0.82;;;20.80;45.20;;;;;;638406;224;26510;-72
2022/06/15 08:34:06;;;;;;;1.10;1.00;;;21.00;45.10;;;;;;638919;222;26573;-72
2022/06/15 08:36:33;;;;;;;1.33;0.90;;;21.00;44.60;;;;;;638972;224;26519;-71
2022/06/15 08:39:00;;;;;;;2.03;1.00;;;21.10;44.80;;;;;;637869;223;26571;-72
2022/06/15 08:41:47;;;;;;;2.17;0.90;;;21.20;45.70;;;;;;642064;221;26788;-71
2022/06/15 08:44:21;;;;;;;1.80;1.17;;;21.20;45.60;;;;;;647112;221;26817;-71
2022/06/15 08:47:06;;;;;;;1.20;1.10;;;21.20;44.80;;;;;;639878;221;26871;-73
2022/06/15 08:49:42;;;;;;;6.45;1.48;;;21.20;43.80;;;;;;637836;224;26608;-72
2022/06/15 08:52:15;;;;;;;1.73;1.15;;;21.20;45.00;;;;;;646431;221;26907;-73
2022/06/15 08:54:44;;;;;;;15.20;3.47;;;21.20;44.80;;;;;;649505;221;26556;-73
2022/06/15 08:57:18;;;;;;;4.53;1.70;;;21.20;43.40;;;;;;641818;221;26724;-73
2022/06/15 08:59:46;;;;;;;3.00;1.55;;;20.90;43.00;;;;;;644329;221;26841;-71
2022/06/15 09:02:30;;;;;;;1.45;0.93;;;20.90;44.80;;;;;;646952;221;26494;-72
2022/06/15 09:05:01;;;;;;;1.80;1.10;;;21.00;44.80;;;;;;633699;221;26553;-71
2022/06/15 09:07:32;;;;;;;5.68;2.20;;;21.10;45.10;;;;;;650961;221;26493;-71
2022/06/15 09:10:12;;;;;;;3.22;1.58;;;21.20;44.30;;;;;;642733;221;26497;-71
2022/06/15 09:12:53;;;;;;;4.10;1.17;;;21.30;44.20;;;;;;638934;225;26480;-71
2022/06/15 09:15:25;;;;;;;4.45;1.85;;;21.30;44.30;;;;;;640704;223;26564;-71
2022/06/15 09:17:52;;;;;;;1.20;1.10;;;21.40;43.80;;;;;;641799;222;26554;-75
2022/06/15 09:20:29;;;;;;;1.15;1.08;;;21.40;44.20;;;;;;638671;223;26579;-75
2022/06/15 09:22:56;;;;;;;4.75;2.10;;;21.50;44.50;;;;;;650606;221;26760;-74
2022/06/15 09:25:26;;;;;;;5.43;1.65;;;21.50;43.60;;;;;;647118;219;26528;-75
2022/06/15 09:27:54;;;;;;;1.42;1.15;;;21.60;44.30;;;;;;646277;220;26540;-75
2022/06/15 09:30:24;;;;;;;3.10;1.50;;;21.60;44.40;;;;;;650608;220;26525;-75
2022/06/15 09:32:51;;;;;;;1.10;0.90;;;21.60;44.30;;;;;;647544;220;26516;-75
2022/06/15 09:35:31;;;;;;;1.30;1.00;;;21.60;43.70;;;;;;638652;221;26543;-76
2022/06/15 09:37:59;;;;;;;2.05;1.40;;;21.60;44.00;;;;;;638615;224;26593;-74
2022/06/15 09:40:28;;;;;;;5.65;2.00;;;21.60;42.40;;;;;;638564;224;26522;-76
2022/06/15 09:43:12;;;;;;;4.93;1.73;;;21.60;42.40;;;;;;637549;221;26503;-71
2022/06/15 09:45:45;;;;;;;1.52;1.08;;;21.50;42.80;;;;;;639467;224;26808;-71
2022/06/15 09:48:30;;;;;;;1.48;1.35;;;21.50;44.20;;;;;;638999;224;26580;-72
2022/06/15 09:51:02;;;;;;;4.28;2.80;;;21.60;44.40;;;;;;635144;221;26576;-71
2022/06/15 09:53:51;;;;;;;10.52;6.57;;;21.60;42.70;;;;;;637308;224;26563;-72
2022/06/15 09:56:19;;;;;;;12.93;8.13;;;21.50;43.00;;;;;;630333;224;26598;-69
2022/06/15 09:58:47;;;;;;;10.63;6.72;;;21.50;43.10;;;;;;638860;221;26592;-71
2022/06/15 10:01:15;;;;;;;9.93;5.78;;;21.60;42.30;;;;;;638550;221;26561;-71
2022/06/15 10:03:43;;;;;;;8.07;4.28;;;21.60;42.00;;;;;;638936;224;26556;-71
2022/06/15 10:06:14;;;;;;;7.95;4.50;;;21.50;42.30;;;;;;638692;225;26516;-71
2022/06/15 10:08:42;;;;;;;7.57;4.70;;;21.50;42.20;;;;;;638728;224;26598;-75
2022/06/15 10:11:11;;;;;;;4.20;2.42;;;21.60;43.00;;;;;;648296;221;26577;-76
2022/06/15 10:13:38;;;;;;;2.62;2.30;;;21.50;43.00;;;;;;650190;219;26536;-76
2022/06/15 10:16:06;;;;;;;15.88;4.32;;;21.90;42.50;;;;;;638163;225;26512;-75
2022/06/15 10:18:35;;;;;;;5.68;4.05;;;22.10;42.40;;;;;;639129;221;26585;-76
2022/06/15 10:21:07;;;;;;;10.80;4.25;;;22.10;42.40;;;;;;651109;221;26526;-75
2022/06/15 10:23:55;;;;;;;0.85;0.85;;;22.20;42.10;;;;;;639310;221;26720;-75
2022/06/15 10:26:29;;;;;;;5.20;2.55;;;22.30;42.70;;;;;;636072;221;26783;-75
2022/06/15 10:28:57;;;;;;;3.37;2.10;;;22.30;42.70;;;;;;649539;221;26588;-75
2022/06/15 10:31:26;;;;;;;2.45;2.05;;;22.40;42.20;;;;;;644574;219;26741;-75
2022/06/15 10:33:55;;;;;;;9.75;3.87;;;22.30;42.40;;;;;;638216;221;26511;-75
2022/06/15 10:36:21;;;;;;;0.88;0.88;;;22.30;42.40;;;;;;638830;223;26773;-75
2022/06/15 10:38:52;;;;;;;1.35;1.27;;;22.40;43.00;;;;;;640400;220;26820;-75
2022/06/15 10:41:55;;;;;;;8.25;2.03;;;22.40;41.80;;;;;;641442;221;26552;-74
2022/06/15 10:44:06;;;;;;;1.60;1.48;;;22.20;41.90;;;;;;638912;224;26550;-76
2022/06/15 10:46:33;;;;;;;1.92;1.60;;;22.30;42.10;;;;;;641878;221;26788;-75
2022/06/15 10:49:01;;;;;;;3.15;1.60;;;22.30;41.40;;;;;;639552;221;26627;-76
2022/06/15 10:51:31;;;;;;;8.73;3.45;;;22.10;41.70;;;;;;649041;221;27218;-76
2022/06/15 10:54:10;;;;;;;5.90;3.50;;;22.10;42.20;;;;;;638027;224;27202;-76
2022/06/15 11:02:13;;;;;;;2.67;2.47;;;22.20;42.20;;;;;;646646;221;26518;-76
2022/06/15 11:05:06;;;;;;;3.87;2.40;;;22.30;41.90;;;;;;644988;221;26788;-76
2022/06/15 11:07:29;;;;;;;6.68;2.83;;;22.40;41.80;;;;;;639340;221;26596;-76
2022/06/15 11:10:07;;;;;;;2.87;1.77;;;22.50;41.30;;;;;;638789;221;26526;-76
2022/06/15 11:12:36;;;;;;;2.55;1.50;;;22.50;41.80;;;;;;643478;221;26556;-76
2022/06/15 11:15:03;;;;;;;2.30;1.37;;;22.80;42.50;;;;;;637915;221;27217;-77
2022/06/15 11:20:04;;;;;;;2.65;1.90;;;23.10;41.50;;;;;;638473;224;26562;-76
2022/06/15 11:22:32;;;;;;;3.58;1.55;;;23.00;40.40;;;;;;645303;221;26503;-75
2022/06/15 11:25:01;;;;;;;1.27;1.20;;;23.00;40.50;;;;;;641275;221;26767;-75
2022/06/15 11:27:33;;;;;;;4.07;2.55;;;23.00;41.30;;;;;;637001;225;26480;-75
2022/06/15 11:30:03;;;;;;;4.93;2.80;;;23.20;41.20;;;;;;638019;225;26504;-76
2022/06/15 11:32:40;;;;;;;7.47;2.87;;;23.20;40.80;;;;;;638482;224;26493;-72
2022/06/15 11:35:34;;;;;;;1.58;1.27;;;23.30;40.40;;;;;;647987;221;26824;-71
2022/06/15 11:38:15;;;;;;;2.20;1.45;;;23.30;41.60;;;;;;646491;221;26547;-70
2022/06/15 11:41:03;;;;;;;7.00;2.72;;;23.40;41.70;;;;;;638243;224;26516;-72
2022/06/15 11:43:30;;;;;;;122.05;21.67;;;23.40;40.40;;;;;;646022;221;26519;-73
2022/06/15 11:46:19;;;;;;;122.70;25.65;;;23.60;40.00;;;;;;638436;224;26752;-72
2022/06/15 11:49:03;;;;;;;110.05;25.27;;;23.60;41.20;;;;;;645001;221;26592;-76
2022/06/15 11:51:51;;;;;;;21.37;5.25;;;23.70;40.10;;;;;;647713;220;26575;-75
2022/06/15 11:54:38;;;;;;;7.12;2.25;;;23.80;40.70;;;;;;637553;224;26562;-74
2022/06/15 11:57:06;;;;;;;18.00;5.47;;;24.00;41.10;;;;;;630386;224;26578;-73
2022/06/15 11:59:34;;;;;;;45.95;10.77;;;24.30;41.60;;;;;;636640;223;26768;-75
2022/06/15 12:02:22;;;;;;;43.47;10.60;;;24.50;41.10;;;;;;637556;224;26478;-76
2022/06/15 12:05:05;;;;;;;42.22;11.00;;;24.50;39.50;;;;;;634847;224;26530;-74
2022/06/15 12:07:50;;;;;;;36.03;9.77;;;24.40;39.70;;;;;;630181;224;26560;-74
2022/06/15 12:10:30;;;;;;;33.33;8.60;;;24.50;38.90;;;;;;634434;225;26575;-74
2022/06/15 12:12:58;;;;;;;26.20;7.07;;;24.70;39.30;;;;;;637380;225;26573;-75
2022/06/15 12:15:31;;;;;;;22.65;6.65;;;25.00;39.80;;;;;;637322;225;26568;-75
2022/06/15 12:18:01;;;;;;;27.90;6.93;;;25.00;39.80;;;;;;637250;225;26583;-75
2022/06/15 12:20:30;;;;;;;5.78;2.97;;;25.00;38.50;;;;;;636963;225;26784;-75
2022/06/15 12:23:02;;;;;;;16.87;5.10;;;25.20;38.00;;;;;;636292;225;26789;-75
2022/06/15 12:25:36;;;;;;;16.98;4.78;;;25.60;38.20;;;;;;637237;225;26511;-75
2022/06/15 12:28:10;;;;;;;4.30;2.37;;;26.10;39.50;;;;;;637113;223;26557;-74
2022/06/15 12:30:43;;;;;;;12.55;4.10;;;26.10;39.40;;;;;;636580;225;26519;-74
2022/06/15 12:33:17;;;;;;;7.47;3.50;;;26.40;37.20;;;;;;637034;225;26532;-74
2022/06/15 12:35:46;;;;;;;3.37;1.80;;;26.50;36.30;;;;;;637173;225;26485;-74
2022/06/15 12:38:16;;;;;;;9.50;3.55;;;26.50;36.30;;;;;;636953;223;26902;-74
2022/06/15 12:40:49;;;;;;;2.35;2.15;;;26.80;36.20;;;;;;636971;225;26893;-73
2022/06/15 12:43:36;;;;;;;3.60;2.00;;;27.10;36.30;;;;;;637033;225;26533;-73
2022/06/15 12:46:07;;;;;;;3.33;2.17;;;27.50;36.20;;;;;;637273;225;26867;-73
2022/06/15 12:48:38;;;;;;;2.40;2.00;;;28.30;35.50;;;;;;637117;226;26539;-73
2022/06/15 12:51:11;;;;;;;1.60;1.50;;;28.30;35.50;;;;;;637407;225;26915;-73
2022/06/15 12:53:44;;;;;;;1.65;1.52;;;28.30;34.30;;;;;;637016;225;26483;-73
2022/06/15 12:56:13;;;;;;;1.85;1.75;;;29.20;34.50;;;;;;636643;225;26534;-73
2022/06/15 12:59:01;;;;;;;3.00;1.67;;;29.20;34.50;;;;;;637282;223;26771;-73
2022/06/15 13:01:28;;;;;;;7.65;2.87;;;29.60;33.70;;;;;;635726;224;26567;-73
2022/06/15 13:04:13;;;;;;;3.42;1.60;;;30.40;34.90;;;;;;637800;224;26525;-73
2022/06/15 13:06:40;;;;;;;1.85;1.65;;;30.40;35.00;;;;;;638329;225;26783;-73
2022/06/15 13:09:19;;;;;;;1.75;1.65;;;31.60;33.90;;;;;;637992;225;26506;-72
2022/06/15 13:11:52;;;;;;;3.33;2.08;;;32.40;33.90;;;;;;637912;225;26522;-72
2022/06/15 13:14:20;;;;;;;2.20;1.45;;;33.60;32.60;;;;;;637647;224;26752;-73
2022/06/15 13:17:12;;;;;;;1.42;1.33;;;34.20;30.70;;;;;;637769;225;26512;-72
2022/06/15 13:19:40;;;;;;;6.70;2.70;;;34.80;30.40;;;;;;636079;225;26588;-73
2022/06/15 13:22:13;;;;;;;3.37;2.83;;;35.00;28.50;;;;;;637388;225;26578;-72